createdAt,value
2018-05-08T00:02:11.049Z,2.17
2018-05-08T00:04:46.271Z,2.13
2018-05-08T00:07:21.536Z,3.43
2018-05-08T00:09:56.838Z,2.20
2018-05-08T00:12:32.111Z,2.70
2018-05-08T00:15:07.426Z,2.60
2018-05-08T00:17:42.675Z,2.80
2018-05-08T00:23:22.020Z,2.13
2018-05-08T00:25:58.118Z,2.07
2018-05-08T00:28:33.299Z,2.30
2018-05-08T00:31:08.565Z,2.60
2018-05-08T00:33:43.865Z,2.23
2018-05-08T00:36:19.375Z,2.50
2018-05-08T00:38:54.669Z,2.87
2018-05-08T00:41:30.616Z,2.67
2018-05-08T00:44:05.811Z,2.37
2018-05-08T00:46:41.215Z,2.27
2018-05-08T00:49:17.175Z,2.10
2018-05-08T00:51:52.404Z,2.33
2018-05-08T01:08:00.841Z,2.53
2018-05-08T01:10:36.051Z,2.97
2018-05-08T01:13:11.176Z,3.00
2018-05-08T01:15:46.478Z,2.50
2018-05-08T01:18:21.805Z,2.73
2018-05-08T01:20:57.108Z,2.90
2018-05-08T01:23:33.094Z,3.60
2018-05-08T01:26:08.380Z,2.87
2018-05-08T01:28:43.657Z,2.90
2018-05-08T01:31:19.478Z,2.90
2018-05-08T01:33:55.543Z,3.40
2018-05-08T01:36:31.491Z,3.57
2018-05-08T01:39:06.575Z,2.83
2018-05-08T01:41:42.136Z,3.20
2018-05-08T01:44:18.125Z,3.80
2018-05-08T01:46:53.268Z,2.53
2018-05-08T01:49:28.626Z,3.10
2018-05-08T01:52:04.063Z,3.37
2018-05-08T01:54:39.206Z,3.20
2018-05-08T01:57:14.331Z,3.93
2018-05-08T01:59:49.642Z,3.17
2018-05-08T02:02:25.762Z,3.70
2018-05-08T02:05:01.071Z,3.30
2018-05-08T02:07:36.961Z,2.80
2018-05-08T02:10:12.040Z,2.87
2018-05-08T02:12:47.409Z,3.30
2018-05-08T02:15:22.579Z,2.67
2018-05-08T02:17:57.846Z,3.33
2018-05-08T02:20:33.133Z,3.03
2018-05-08T02:23:09.114Z,3.00
2018-05-08T02:25:45.040Z,3.10
2018-05-08T02:28:20.227Z,2.83
2018-05-08T02:30:55.622Z,2.83
2018-05-08T02:33:30.792Z,2.83
2018-05-08T02:36:06.204Z,2.80
2018-05-08T02:38:41.560Z,2.30
2018-05-08T02:41:16.878Z,2.53
2018-05-08T02:43:52.228Z,3.77
2018-05-08T02:46:28.220Z,3.03
2018-05-08T02:49:04.163Z,2.60
2018-05-08T02:51:39.297Z,2.70
2018-05-08T02:54:14.796Z,2.70
2018-05-08T02:56:50.725Z,2.67
2018-05-08T02:59:26.112Z,3.10
2018-05-08T03:02:01.345Z,3.10
2018-05-08T03:04:36.652Z,3.07
2018-05-08T03:07:11.944Z,2.83
2018-05-08T03:09:47.177Z,3.00
2018-05-08T03:12:22.460Z,3.10
2018-05-08T03:14:58.491Z,2.80
2018-05-08T03:17:33.741Z,2.97
2018-05-08T03:20:09.160Z,2.67
2018-05-08T03:22:45.240Z,3.07
2018-05-08T03:25:21.191Z,2.90
2018-05-08T03:27:57.234Z,2.67
2018-05-08T03:30:32.460Z,2.57
2018-05-08T03:33:07.740Z,2.97
2018-05-08T03:35:43.058Z,3.10
2018-05-08T03:38:19.045Z,3.70
2018-05-08T03:40:54.980Z,3.40
2018-05-08T03:43:30.253Z,3.70
2018-05-08T03:46:05.554Z,3.30
2018-05-08T03:48:41.633Z,4.00
2018-05-08T03:51:17.600Z,3.63
2018-05-08T03:53:52.809Z,4.00
2018-05-08T03:56:28.143Z,2.77
2018-05-08T03:59:03.509Z,3.00
2018-05-08T04:01:56.613Z,3.03
2018-05-08T04:04:50.461Z,3.47
2018-05-08T04:07:43.505Z,3.50
2018-05-08T04:10:19.512Z,2.97
2018-05-08T04:12:54.843Z,2.97
2018-05-08T04:15:30.082Z,3.37
2018-05-08T04:18:05.407Z,3.33
2018-05-08T04:20:40.698Z,3.03
2018-05-08T04:23:15.938Z,3.67
2018-05-08T04:25:51.343Z,3.00
2018-05-08T04:28:26.475Z,3.17
2018-05-08T04:31:01.840Z,3.03
2018-05-08T04:33:37.180Z,3.23
2018-05-08T04:36:12.472Z,3.50
2018-05-08T04:38:47.647Z,3.77
2018-05-08T04:41:22.922Z,3.37
2018-05-08T04:43:58.243Z,4.03
2018-05-08T04:46:33.584Z,4.13
2018-05-08T04:49:08.917Z,3.40
2018-05-08T04:51:44.261Z,3.20
2018-05-08T04:54:19.607Z,3.17
2018-05-08T04:56:55.595Z,3.33
2018-05-08T04:59:30.802Z,4.20
2018-05-08T05:02:06.866Z,3.13
2018-05-08T05:04:42.091Z,3.10
2018-05-08T05:07:19.178Z,3.90
2018-05-08T05:09:55.169Z,3.60
2018-05-08T05:12:31.104Z,3.90
2018-05-08T05:15:06.315Z,3.17
2018-05-08T05:17:41.580Z,2.80
2018-05-08T05:20:16.983Z,3.40
2018-05-08T05:22:52.082Z,3.30
2018-05-08T05:25:27.348Z,3.37
2018-05-08T05:28:03.254Z,2.87
2018-05-08T05:30:38.613Z,3.23
2018-05-08T05:33:14.681Z,2.40
2018-05-08T05:35:49.827Z,2.80
2018-05-08T05:38:25.105Z,2.53
2018-05-08T05:41:00.471Z,2.87
2018-05-08T05:43:35.687Z,2.90
2018-05-08T05:46:11.055Z,2.73
2018-05-08T05:48:46.375Z,3.63
2018-05-08T05:51:21.836Z,3.63
2018-05-08T05:53:57.694Z,2.77
2018-05-08T05:56:32.934Z,4.33
2018-05-08T05:59:08.184Z,3.83
2018-05-08T06:01:43.440Z,3.27
2018-05-08T06:04:18.647Z,3.37
2018-05-08T06:06:53.903Z,2.53
2018-05-08T06:09:29.124Z,2.60
2018-05-08T06:12:04.473Z,2.47
2018-05-08T06:14:39.812Z,2.20
2018-05-08T06:17:15.877Z,2.83
2018-05-08T06:19:50.903Z,2.23
2018-05-08T06:22:28.255Z,2.27
2018-05-08T06:25:03.519Z,2.10
2018-05-08T06:27:38.873Z,2.87
2018-05-08T06:30:14.218Z,2.70
2018-05-08T06:32:49.559Z,2.77
2018-05-08T06:35:25.609Z,2.20
2018-05-08T06:38:00.968Z,2.63
2018-05-08T06:40:36.316Z,2.00
2018-05-08T06:43:11.749Z,2.73
2018-05-08T06:45:47.815Z,2.10
2018-05-08T06:48:22.951Z,2.10
2018-05-08T06:50:58.003Z,1.57
2018-05-08T06:53:33.436Z,1.97
2018-05-08T06:56:09.295Z,2.30
2018-05-08T06:58:44.626Z,1.73
2018-05-08T07:01:19.854Z,1.77
2018-05-08T07:03:55.114Z,1.77
2018-05-08T07:06:30.431Z,1.53
2018-05-08T07:09:05.789Z,1.90
2018-05-08T07:11:41.939Z,1.33
2018-05-08T07:14:17.945Z,1.60
2018-05-08T07:16:53.842Z,1.83
2018-05-08T07:19:29.835Z,1.80
2018-05-08T07:22:05.787Z,2.30
2018-05-08T07:24:41.745Z,1.87
2018-05-08T07:27:17.062Z,1.60
2018-05-08T07:29:52.371Z,1.77
2018-05-08T07:32:27.564Z,1.50
2018-05-08T07:35:03.501Z,1.60
2018-05-08T07:37:40.401Z,2.03
2018-05-08T07:40:15.698Z,1.70
2018-05-08T07:42:51.637Z,1.50
2018-05-08T07:45:26.934Z,1.70
2018-05-08T07:48:02.219Z,2.20
2018-05-08T07:50:37.517Z,1.97
2018-05-08T07:53:12.830Z,1.60
2018-05-08T07:55:47.964Z,1.73
2018-05-08T07:58:23.103Z,1.97
2018-05-08T08:00:58.331Z,1.60
2018-05-08T08:03:33.598Z,1.63
2018-05-08T08:06:08.959Z,1.50
2018-05-08T08:08:44.920Z,1.90
2018-05-08T08:11:20.089Z,2.07
2018-05-08T08:13:56.015Z,1.70
2018-05-08T08:16:31.132Z,2.10
2018-05-08T08:19:06.527Z,2.70
2018-05-08T08:21:41.775Z,2.20
2018-05-08T08:24:17.066Z,2.20
2018-05-08T08:26:52.379Z,1.93
2018-05-08T08:29:28.293Z,1.50
2018-05-08T08:32:03.577Z,1.67
2018-05-08T08:34:39.960Z,1.80
2018-05-08T08:37:15.215Z,2.10
2018-05-08T08:39:50.539Z,1.77
2018-05-08T08:42:25.859Z,2.10
2018-05-08T08:45:01.131Z,2.30
2018-05-08T08:47:36.617Z,2.83
2018-05-08T08:50:11.813Z,2.03
2018-05-08T08:52:48.191Z,2.33
2018-05-08T08:55:23.295Z,2.40
2018-05-08T08:58:00.957Z,1.50
2018-05-08T09:00:36.055Z,1.50
2018-05-08T09:03:11.283Z,1.73
2018-05-08T09:05:46.610Z,2.00
2018-05-08T09:08:22.572Z,2.03
2018-05-08T09:10:58.448Z,2.10
2018-05-08T09:13:33.673Z,1.50
2018-05-08T09:16:08.831Z,1.27
2018-05-08T09:18:44.143Z,1.43
2018-05-08T09:24:36.356Z,1.53
2018-05-08T09:27:11.604Z,1.30
2018-05-08T09:29:48.031Z,1.77
2018-05-08T09:32:23.303Z,2.10
2018-05-08T09:34:58.425Z,1.90
2018-05-08T09:43:48.127Z,1.40
2018-05-08T09:46:23.381Z,2.57
2018-05-08T09:49:00.225Z,1.93
2018-05-08T09:51:35.768Z,1.57
2018-05-08T09:54:15.139Z,1.53
2018-05-08T09:56:50.192Z,1.60
2018-05-08T09:59:25.463Z,1.60
2018-05-08T10:02:00.660Z,1.70
2018-05-08T10:04:36.404Z,1.43
2018-05-08T10:07:11.712Z,1.80
2018-05-08T10:09:47.004Z,1.40
2018-05-08T10:12:22.168Z,2.30
2018-05-08T10:14:57.428Z,1.90
2018-05-08T10:17:32.673Z,1.43
2018-05-08T10:20:07.981Z,1.63
2018-05-08T10:22:44.043Z,1.60
2018-05-08T10:25:19.172Z,1.60
2018-05-08T10:27:55.182Z,1.70
2018-05-08T10:30:30.305Z,1.57
2018-05-08T10:33:05.636Z,1.50
2018-05-08T10:35:40.723Z,1.23
2018-05-08T10:38:15.974Z,1.83
2018-05-08T10:40:51.226Z,1.47
2018-05-08T10:43:26.473Z,1.40
2018-05-08T10:46:01.733Z,2.03
2018-05-08T10:48:37.092Z,1.60
2018-05-08T10:51:13.016Z,1.03
2018-05-08T10:53:48.249Z,1.40
2018-05-08T10:56:23.464Z,1.33
2018-05-08T10:58:59.462Z,1.70
2018-05-08T11:01:34.796Z,1.57
2018-05-08T11:04:10.060Z,1.40
2018-05-08T11:06:46.110Z,1.10
2018-05-08T11:09:21.333Z,1.47
2018-05-08T11:11:57.491Z,1.50
2018-05-08T11:14:33.553Z,1.40
2018-05-08T11:17:08.717Z,1.20
2018-05-08T11:19:44.005Z,1.50
2018-05-08T11:22:19.255Z,1.60
2018-05-08T11:24:54.491Z,1.73
2018-05-08T11:27:29.731Z,1.17
2018-05-08T11:30:05.008Z,1.37
2018-05-08T11:32:40.130Z,1.10
2018-05-08T11:35:15.995Z,1.27
2018-05-08T11:37:51.967Z,1.37
2018-05-08T11:40:27.316Z,1.60
2018-05-08T11:43:02.537Z,1.20
2018-05-08T11:45:37.775Z,1.30
2018-05-08T11:48:13.802Z,1.30
2018-05-08T11:50:48.947Z,1.23
2018-05-08T11:53:24.186Z,1.60
2018-05-08T11:56:00.265Z,1.20
2018-05-08T11:58:35.381Z,1.27
2018-05-08T12:01:11.373Z,1.50
2018-05-08T12:03:47.390Z,1.17
2018-05-08T12:06:23.457Z,1.27
2018-05-08T12:08:58.627Z,1.20
2018-05-08T12:11:33.961Z,1.30
2018-05-08T12:14:09.086Z,1.43
2018-05-08T12:16:44.315Z,0.90
2018-05-08T12:19:19.725Z,1.00
2018-05-08T12:21:55.057Z,1.17
2018-05-08T12:24:30.218Z,1.23
2018-05-08T12:27:05.593Z,1.50
2018-05-08T12:29:40.930Z,1.03
2018-05-08T12:32:16.191Z,1.13
2018-05-08T12:34:51.427Z,1.10
2018-05-08T12:37:26.596Z,1.20
2018-05-08T12:40:01.904Z,1.07
2018-05-08T12:42:37.149Z,1.33
2018-05-08T12:45:12.437Z,1.00
2018-05-08T12:47:47.625Z,1.10
2018-05-08T12:50:23.590Z,1.20
2018-05-08T12:52:58.681Z,0.93
2018-05-08T12:55:33.916Z,1.00
2018-05-08T12:58:09.167Z,0.80
2018-05-08T13:00:44.424Z,0.93
2018-05-08T13:03:20.400Z,1.17
2018-05-08T13:05:55.582Z,1.03
2018-05-08T13:08:30.928Z,1.20
2018-05-08T13:11:06.843Z,0.80
2018-05-08T13:13:42.889Z,1.10
2018-05-08T13:16:18.188Z,1.10
2018-05-08T13:18:53.374Z,1.13
2018-05-08T13:21:28.556Z,0.80
2018-05-08T13:24:03.868Z,1.00
2018-05-08T13:26:39.754Z,0.90
2018-05-08T13:29:15.100Z,0.93
2018-05-08T13:31:50.477Z,1.00
2018-05-08T13:34:26.625Z,1.20
2018-05-08T13:37:01.788Z,1.10
2018-05-08T13:39:37.104Z,0.70
2018-05-08T13:42:12.375Z,1.10
2018-05-08T13:44:48.411Z,1.27
2018-05-08T13:47:23.651Z,0.90
2018-05-08T13:49:58.789Z,1.33
2018-05-08T13:52:34.129Z,1.27
2018-05-08T13:55:09.477Z,1.60
2018-05-08T13:57:44.396Z,1.50
2018-05-08T14:00:19.661Z,1.37
2018-05-08T14:02:55.680Z,1.10
2018-05-08T14:05:31.071Z,1.43
2018-05-08T14:08:06.983Z,0.90
2018-05-08T14:10:42.281Z,1.30
2018-05-08T14:13:17.609Z,1.00
2018-05-08T14:15:52.706Z,1.90
2018-05-08T14:18:28.103Z,1.20
2018-05-08T14:21:03.182Z,1.20
2018-05-08T14:23:38.473Z,1.10
2018-05-08T14:26:13.531Z,1.40
2018-05-08T14:28:48.756Z,1.30
2018-05-08T14:31:24.108Z,1.13
2018-05-08T14:33:59.199Z,1.17
2018-05-08T14:36:34.444Z,1.17
2018-05-08T14:39:09.725Z,1.53
2018-05-08T14:41:45.082Z,1.23
2018-05-08T14:44:20.252Z,1.07
2018-05-08T14:46:55.357Z,1.63
2018-05-08T14:49:30.770Z,1.40
2018-05-08T14:52:05.851Z,1.20
2018-05-08T14:54:40.980Z,2.03
2018-05-08T14:57:16.354Z,1.77
2018-05-08T14:59:51.600Z,1.20
2018-05-08T15:02:26.953Z,1.47
2018-05-08T15:05:02.278Z,1.40
2018-05-08T15:07:37.355Z,1.23
2018-05-08T15:10:12.642Z,1.50
2018-05-08T15:12:47.851Z,1.20
2018-05-08T15:15:23.107Z,1.33
2018-05-08T15:17:58.396Z,1.13
2018-05-08T15:20:33.536Z,1.40
2018-05-08T15:23:08.813Z,1.07
2018-05-08T15:25:43.940Z,1.30
2018-05-08T15:28:19.558Z,0.90
2018-05-08T15:30:55.101Z,1.53
2018-05-08T15:33:31.235Z,1.30
2018-05-08T15:36:06.436Z,1.47
2018-05-08T15:38:41.705Z,1.50
2018-05-08T15:41:17.712Z,1.50
2018-05-08T15:43:53.013Z,1.43
2018-05-08T15:46:29.905Z,1.20
2018-05-08T15:49:05.260Z,1.67
2018-05-08T15:51:40.529Z,1.40
2018-05-08T15:54:15.755Z,1.33
2018-05-08T15:56:51.081Z,1.00
2018-05-08T15:59:26.318Z,1.43
2018-05-08T16:02:01.464Z,1.30
2018-05-08T16:04:36.749Z,1.37
2018-05-08T16:07:14.124Z,1.47
2018-05-08T16:09:50.619Z,1.60
2018-05-08T16:12:26.964Z,1.30
2018-05-08T16:15:02.489Z,1.30
2018-05-08T16:17:37.722Z,1.33
2018-05-08T16:20:17.810Z,1.13
2018-05-08T16:22:53.901Z,1.27
2018-05-08T16:25:30.046Z,2.77
2018-05-08T16:28:05.987Z,1.70
2018-05-08T16:30:41.338Z,1.60
2018-05-08T16:33:16.948Z,2.10
2018-05-08T16:35:52.372Z,1.30
2018-05-08T16:38:28.539Z,1.60
2018-05-08T16:41:03.744Z,1.37
2018-05-08T16:43:39.286Z,1.60
2018-05-08T16:46:14.496Z,1.13
2018-05-08T16:48:50.581Z,1.47
2018-05-08T16:51:26.539Z,2.57
2018-05-08T16:54:01.928Z,1.73
2018-05-08T16:56:37.240Z,1.50
2018-05-08T16:59:12.563Z,1.70
2018-05-08T17:01:47.863Z,2.13
2018-05-08T17:04:22.945Z,1.77
2018-05-08T17:06:58.042Z,1.70
2018-05-08T17:09:33.389Z,2.00
2018-05-08T17:12:08.800Z,1.77
2018-05-08T17:14:44.739Z,1.80
2018-05-08T17:17:20.123Z,1.40
2018-05-08T17:19:55.392Z,2.00
2018-05-08T17:22:30.529Z,1.80
2018-05-08T17:25:05.671Z,1.77
2018-05-08T17:27:41.637Z,1.60
2018-05-08T17:30:16.759Z,1.97
2018-05-08T17:32:51.997Z,1.40
2018-05-08T17:35:28.272Z,2.20
2018-05-08T17:38:03.457Z,2.17
2018-05-08T17:40:39.455Z,2.63
2018-05-08T17:43:14.633Z,2.10
2018-05-08T17:45:49.751Z,2.47
2018-05-08T17:48:25.724Z,2.10
2018-05-08T17:51:00.975Z,2.20
2018-05-08T17:53:36.321Z,1.83
2018-05-08T17:56:11.667Z,2.40
2018-05-08T17:58:47.651Z,2.40
2018-05-08T18:01:22.945Z,2.30
2018-05-08T18:03:58.256Z,2.40
2018-05-08T18:06:33.429Z,2.40
2018-05-08T18:09:09.472Z,3.13
2018-05-08T18:11:45.030Z,1.77
2018-05-08T18:14:20.957Z,2.20
2018-05-08T18:16:56.225Z,2.00
2018-05-08T18:19:33.145Z,2.30
2018-05-08T18:22:08.401Z,2.30
2018-05-08T18:24:43.792Z,2.10
2018-05-08T18:27:19.082Z,2.60
2018-05-08T18:29:54.248Z,2.37
2018-05-08T18:32:29.505Z,2.37
2018-05-08T18:35:04.799Z,3.03
2018-05-08T18:37:39.930Z,2.30
2018-05-08T18:40:16.830Z,2.53
2018-05-08T18:42:51.943Z,2.67
2018-05-08T18:45:27.083Z,2.30
2018-05-08T18:48:02.373Z,2.50
2018-05-08T18:50:38.485Z,2.90
2018-05-08T18:53:14.527Z,3.03
2018-05-08T18:55:50.837Z,2.30
2018-05-08T18:58:25.968Z,2.50
2018-05-08T19:01:01.310Z,3.10
2018-05-08T19:03:37.084Z,2.20
2018-05-08T19:06:12.462Z,2.80
2018-05-08T19:08:53.166Z,2.43
2018-05-08T19:11:34.565Z,2.47
2018-05-08T19:14:10.546Z,2.53
2018-05-08T19:16:46.654Z,6.10
2018-05-08T19:19:27.485Z,8.13
2018-05-08T19:22:02.713Z,2.57
2018-05-08T19:24:38.059Z,2.57
2018-05-08T19:27:15.194Z,2.53
2018-05-08T19:29:55.956Z,2.33
2018-05-08T19:32:31.217Z,2.50
2018-05-08T19:35:13.845Z,2.30
2018-05-08T19:37:54.507Z,2.10
2018-05-08T19:40:30.504Z,2.90
2018-05-08T19:43:05.832Z,2.37
2018-05-08T19:45:41.034Z,3.10
2018-05-08T19:48:17.059Z,3.07
2018-05-08T19:50:52.405Z,2.60
2018-05-08T19:53:27.739Z,2.27
2018-05-08T19:56:03.070Z,3.20
2018-05-08T19:58:38.284Z,3.33
2018-05-08T20:01:14.197Z,2.83
2018-05-08T20:03:49.611Z,2.50
2018-05-08T20:06:24.962Z,2.67
2018-05-08T20:09:01.178Z,2.90
2018-05-08T20:11:37.083Z,2.27
2018-05-08T20:14:12.368Z,2.20
2018-05-08T20:16:47.634Z,2.30
2018-05-08T20:19:24.021Z,2.70
2018-05-08T20:22:00.037Z,2.90
2018-05-08T20:24:35.353Z,2.63
2018-05-08T20:27:11.523Z,2.50
2018-05-08T20:29:46.871Z,10.20
2018-05-08T20:32:22.070Z,3.23
2018-05-08T20:34:57.331Z,2.80
2018-05-08T20:37:32.450Z,3.43
2018-05-08T20:40:08.706Z,3.33
2018-05-08T20:42:43.908Z,3.00
2018-05-08T20:45:19.152Z,3.50
2018-05-08T20:47:54.538Z,3.03
2018-05-08T20:50:29.850Z,4.00
2018-05-08T20:53:05.195Z,3.17
2018-05-08T20:55:40.514Z,2.90
2018-05-08T20:58:16.422Z,3.03
2018-05-08T21:00:51.687Z,3.00
2018-05-08T21:03:26.991Z,2.83
2018-05-08T21:06:02.298Z,2.50
2018-05-08T21:08:38.317Z,2.93
2018-05-08T21:11:14.217Z,2.60
2018-05-08T21:13:50.107Z,2.93
2018-05-08T21:16:25.256Z,3.13
2018-05-08T21:19:00.552Z,2.13
2018-05-08T21:21:35.709Z,2.43
2018-05-08T21:24:11.061Z,2.50
2018-05-08T21:26:46.252Z,3.53
2018-05-08T21:29:26.901Z,2.03
2018-05-08T21:32:02.172Z,2.90
2018-05-08T21:34:37.489Z,3.03
2018-05-08T21:37:13.703Z,3.10
2018-05-08T21:39:49.056Z,9.17
2018-05-08T21:42:24.143Z,3.97
2018-05-08T21:44:59.389Z,3.27
2018-05-08T21:47:34.712Z,3.20
2018-05-08T21:50:10.000Z,3.40
2018-05-08T21:52:45.339Z,2.83
2018-05-08T21:55:20.751Z,2.70
2018-05-08T21:57:56.051Z,3.13
2018-05-08T22:00:31.291Z,3.63
2018-05-08T22:03:06.465Z,2.53
2018-05-08T22:05:42.367Z,2.70
2018-05-08T22:08:17.493Z,2.80
2018-05-08T22:10:52.644Z,2.20
2018-05-08T22:13:27.848Z,3.00
2018-05-08T22:16:03.034Z,3.17
2018-05-08T22:18:38.941Z,2.63
2018-05-08T22:21:14.915Z,3.00
2018-05-08T22:23:50.068Z,2.43
2018-05-08T22:26:26.013Z,3.10
2018-05-08T22:29:01.973Z,2.90
2018-05-08T22:31:37.930Z,3.10
2018-05-08T22:34:13.093Z,2.60
2018-05-08T22:36:49.320Z,3.53
2018-05-08T22:39:24.459Z,2.93
2018-05-08T22:41:59.798Z,2.87
2018-05-08T22:44:35.863Z,2.90
2018-05-08T22:47:12.217Z,3.00
2018-05-08T22:49:47.538Z,3.30
2018-05-08T22:52:22.810Z,3.10
2018-05-08T22:54:58.153Z,3.00
2018-05-08T22:57:33.358Z,4.10
2018-05-08T23:00:08.522Z,3.27
2018-05-08T23:02:43.654Z,3.67
2018-05-08T23:05:18.924Z,2.60
2018-05-08T23:07:54.836Z,3.27
2018-05-08T23:10:30.001Z,3.40
2018-05-08T23:13:05.166Z,4.00
2018-05-08T23:15:40.457Z,3.00
2018-05-08T23:18:15.882Z,2.97
2018-05-08T23:20:51.790Z,2.93
2018-05-08T23:23:27.711Z,2.97
2018-05-08T23:26:03.053Z,3.37
2018-05-08T23:28:38.217Z,2.80
2018-05-08T23:31:13.430Z,3.20
2018-05-08T23:33:48.575Z,3.43
2018-05-08T23:36:23.854Z,2.83
2018-05-08T23:38:59.065Z,3.10
2018-05-08T23:41:34.308Z,3.50
2018-05-08T23:44:09.627Z,3.30
2018-05-08T23:46:44.986Z,3.87
2018-05-08T23:49:20.253Z,3.50
2018-05-08T23:51:55.550Z,3.00
2018-05-08T23:54:30.853Z,3.10
2018-05-08T23:57:06.105Z,2.93
2018-05-08T23:59:41.989Z,3.10
